Latest Coastal Weather Observations for Williamtown

IDN60701

Issued at 5:32 am EDT Sunday 21 December 2014 (issued every 10 minutes, with the page automatically refreshed every 10 minutes)

About coastal observations | Map of coastal stations | Coastal observations for NSW | Marine services | Other Formats
Station Details ID: 061078 Name: WILLIAMTOWN RAAF Lat: -32.79 Lon: 151.84 Height: 9.0 m
Data from the previous 72 hours. | See also: Recent months at Williamtown
Date/Time
EDT
Temp

°C
Wind Pressure Rain
since 9am
mm
Weather Cloud Vis
km
Sea
Height
m
Swell
Dir
 
Speed
knots
Gust
knots
hPa Trend Height
m
Period
s
Dir
21/05:30am 14.3 ENE 3 4 1016.9 - 0.0 - - 10 - - - -
21/05:00am 14.3 E 4 4 1016.8 - 0.0 - - 10 - - - -
21/04:30am 14.3 E 3 4 1016.9 - 0.0 - - 10 - - - -
21/04:00am 14.3 ENE 3 4 1016.7 - 0.0 - - 10 - - - -
21/03:30am 14.6 CALM 0 0 1016.8 - 0.0 - - - - - - -
21/03:00am 14.1 CALM 0 0 1017.0 - 0.0 - - 10 - - - -
21/02:30am 14.5 CALM 0 0 1017.2 - 0.0 - - 10 - - - -
21/02:00am 14.8 CALM 0 0 1017.3 - 0.0 - - 10 - - - -
21/01:30am 15.3 CALM 0 0 1017.5 - 0.0 - - 10 - - - -
21/01:00am 16.1 ENE 3 4 1017.8 - 0.0 - - 10 - - - -
21/12:30am 16.8 ENE 4 5 1018.0 - 0.0 - - 10 - - - -
21/12:00am 17.2 NE 4 5 1018.3 - 0.0 - - 10 - - - -
 
Date/Time
EDT
Temp

°C
Wind Pressure Rain
since 9am
mm
Weather Cloud Vis
km
Sea
Height
m
Swell
Dir
 
Speed
knots
Gust
knots
hPa Trend Height
m
Period
s
Dir
20/11:30pm 17.7 NE 4 5 1018.4 - 0.0 - - 10 - - - -
20/11:00pm 18.5 ENE 5 7 1018.6 - 0.0 - - 10 - - - -
20/10:30pm 18.7 ENE 6 8 1018.5 - 0.0 - - 10 - - - -
20/10:00pm 18.0 ENE 5 7 1018.4 - 0.0 - - 10 - - - -
20/09:30pm 18.5 NE 5 7 1018.2 - 0.0 - - 10 - - - -
20/09:00pm 19.3 ENE 6 8 1018.2 - 0.0 - - 10 - - - -
20/08:30pm 20.0 E 7 9 1017.9 - 0.0 - - 10 - - - -
20/08:00pm 20.4 ESE 7 9 1017.5 - 0.0 - - 10 - - - -
20/07:30pm 21.1 E 9 10 1017.1 - 0.0 - - 10 - - - -
20/07:00pm 21.4 E 11 14 1016.8 - 0.0 - - 10 - - - -
20/06:30pm 21.7 E 12 17 1016.4 - 0.0 - - 10 - - - -
20/06:00pm 22.0 E 12 16 1016.1 - 0.0 - - 10 - - - -
20/05:30pm 22.1 ESE 13 17 1015.9 - 0.0 - - 10 - - - -
20/05:00pm 22.4 ESE 13 17 1015.9 - 0.0 - - 10 - - - -
20/04:30pm 22.2 ESE 13 17 1015.9 - 0.0 - - 10 - - - -
20/04:00pm 22.8 ESE 13 16 1016.1 - 0.0 - - 10 - - - -
20/03:30pm 22.8 SE 14 18 1016.4 - 0.0 - - 10 - - - -
20/03:00pm 23.4 ESE 12 16 1016.7 - 0.0 - - 10 - - - -
20/02:30pm 22.9 ESE 13 17 1016.7 - 0.0 - - 10 - - - -
20/02:00pm 23.1 SE 13 17 1017.0 - 0.0 - Partly cloudy 10 - - - -
20/01:30pm 22.1 SE 11 18 1017.3 - 0.0 - Partly cloudy 10 - - - -
20/01:00pm 22.6 ESE 9 15 1017.6 - 0.0 - Partly cloudy 10 - - - -
20/12:30pm 22.2 SE 11 14 1017.9 - 0.0 - Partly cloudy 10 - - - -
20/12:00pm 22.4 ESE 7 11 1018.2 - 0.0 - Cloudy 10 - - - -
20/11:30am 22.5 ESE 8 15 1018.4 - 0.0 - Partly cloudy 10 - - - -
20/11:00am 21.5 ESE 8 13 1018.4 - 0.0 - Partly cloudy 10 - - - -
20/10:30am 21.4 SE 10 13 1018.3 - 0.0 - Partly cloudy 10 - - - -
20/10:00am 22.0 E 8 10 1018.4 - 0.0 - Partly cloudy 10 - - - -
20/09:30am 21.0 ESE 7 12 1018.3 - 0.0 - Partly cloudy 10 - - - -
20/09:00am 21.1 SE 9 11 1018.2 - 0.0 - Cloudy 10 - - - -
20/08:30am 20.5 SE 9 11 1017.9 - 0.0 - Partly cloudy 10 - - - -
20/08:00am 20.6 SE 7 9 1017.9 - 0.0 - Cloudy 10 - - - -
20/07:30am 20.0 SE 7 9 1017.7 - 0.0 - Partly cloudy 10 - - - -
20/07:00am 18.7 SSE 3 5 1017.4 - 0.0 - Partly cloudy 10 - - - -
20/06:30am 17.3 CALM 0 0 1017.1 - 0.0 - Cloudy 8 - - - -
20/06:00am 16.8 CALM 0 0 1016.9 - 0.0 - Cloudy 10 - - - -
20/05:30am 15.8 S 1 4 1016.8 - 0.0 - Cloudy 10 - - - -
20/05:00am 15.7 CALM 0 0 1016.6 - 0.0 - Partly cloudy 10 - - - -
20/04:30am 16.5 CALM 0 0 1016.5 - 0.0 - Partly cloudy 10 - - - -
20/04:00am 16.9 CALM 0 0 1016.5 - 0.0 - Partly cloudy 10 - - - -
20/03:30am 17.4 SE 1 4 1016.6 - 0.0 - Cloudy 10 - - - -
20/03:00am 18.1 SE 5 6 1016.6 - 0.0 - Cloudy 10 - - - -
20/02:30am 18.8 SSE 8 10 1016.8 - 0.0 - Cloudy 10 - - - -
20/02:00am 19.0 SE 6 8 1017.0 - 0.0 - Partly cloudy 10 - - - -
20/01:30am 19.3 S 7 10 1017.3 - 0.0 - Partly cloudy 10 - - - -
20/01:00am 18.9 S 6 7 1017.7 - 0.0 - Cloudy 10 - - - -
20/12:30am 19.0 SE 5 7 1018.0 - 0.0 - Cloudy 10 - - - -
20/12:00am 19.2 SSE 11 15 1018.2 - 0.0 - Cloudy 10 - - - -
 
Date/Time
EDT
Temp

°C
Wind Pressure Rain
since 9am
mm
Weather Cloud Vis
km
Sea
Height
m
Swell
Dir
 
Speed
knots
Gust
knots
hPa Trend Height
m
Period
s
Dir
19/11:30pm 19.2 SE 9 13 1018.3 - 0.0 - Partly cloudy 10 - - - -
19/11:00pm 19.7 SE 9 13 1018.2 - 0.0 - Partly cloudy 10 - - - -
19/10:30pm 19.8 SE 9 12 1018.0 - 0.0 - Cloudy 10 - - - -
19/10:00pm 19.9 SE 10 14 1017.9 - 0.0 - Partly cloudy 10 - - - -
19/09:30pm 19.9 SE 9 12 1017.3 - 0.0 - Cloudy 10 - - - -
19/09:00pm 20.0 SE 11 14 1016.9 - 0.0 - Partly cloudy 10 - - - -
19/08:30pm 20.1 SE 10 13 1016.5 - 0.0 - Partly cloudy 10 - - - -
19/08:00pm 20.1 SE 11 14 1016.0 - 0.0 - Cloudy 10 - - - -
19/07:30pm 20.4 SSE 11 16 1015.4 - 0.0 - Partly cloudy 10 - - - -
19/07:00pm 20.7 SSE 13 16 1014.7 - 0.0 - Partly cloudy 10 - - - -
19/06:30pm 20.9 SSE 14 18 1014.0 - 0.0 - Partly cloudy 10 - - - -
19/06:00pm 21.5 SSE 15 19 1013.5 - 0.0 - - 10 - - - -
19/05:30pm 21.9 SSE 15 19 1012.9 - 0.0 - - 10 - - - -
19/05:00pm 21.0 SSE 15 18 1012.6 - 0.0 - Partly cloudy 10 - - - -
19/04:30pm 22.3 SSE 15 19 1012.4 - 0.0 - Partly cloudy 10 - - - -
19/04:00pm 21.9 SSE 15 20 1012.5 - 0.0 - Partly cloudy 10 - - - -
19/03:30pm 22.4 SSE 14 20 1012.5 - 0.0 - Partly cloudy 10 - - - -
19/03:00pm 22.1 SSE 15 22 1012.4 - 0.0 - Cloudy 10 - - - -
19/02:30pm 22.8 SSE 16 22 1012.6 - 0.0 - - 10 - - - -
19/02:00pm 23.0 SSE 16 20 1012.8 - 0.0 - - 10 - - - -
19/01:30pm 22.5 SSE 15 20 1013.0 - 0.0 - - 10 - - - -
19/01:00pm 23.4 SSE 15 21 1013.2 - 0.0 - Partly cloudy 10 - - - -
19/12:30pm 22.9 S 16 20 1013.5 - 0.0 - Partly cloudy 10 - - - -
19/12:00pm 22.8 S 16 21 1013.4 - 0.0 - - 10 - - - -
19/11:30am 22.9 S 16 20 1013.3 - 0.0 - Partly cloudy 10 - - - -
19/11:00am 23.2 S 16 22 1013.3 - 0.0 - Partly cloudy 10 - - - -
19/10:30am 21.1 S 15 20 1013.3 - 0.0 - Partly cloudy 10 - - - -
19/10:00am 21.2 S 17 22 1013.2 - 0.0 - Partly cloudy 10 - - - -
19/09:30am 20.4 S 15 20 1013.2 - 0.0 - Partly cloudy 10 - - - -
19/09:00am 20.8 SSW 15 23 1013.0 - 0.0 - Cloudy 10 - - - -
19/08:30am 20.6 SSW 16 22 1012.7 - 0.0 - Partly cloudy 10 - - - -
19/08:00am 20.7 S 17 23 1011.9 - 0.0 - Partly cloudy 10 - - - -
19/07:37am 20.1 S 16 26 1011.3 - 0.0 - Partly cloudy 10 - - - -
19/07:30am 20.1 S 18 26 1011.1 - 0.0 - Partly cloudy 10 - - - -
19/07:05am 19.7 S 16 21 1010.6 - 0.0 - Partly cloudy 10 - - - -
19/07:00am 19.7 S 16 20 1010.5 - 0.0 - Cloudy 10 - - - -
19/06:35am 19.8 S 18 28 1009.9 - 0.0 - Partly cloudy 10 - - - -
19/06:30am 19.7 S 19 28 1009.9 - 0.0 - Partly cloudy 10 - - - -
19/06:21am 19.7 S 19 27 1009.7 - 0.0 - Partly cloudy 9 - - - -
19/06:10am 19.4 S 15 24 1009.4 - 0.0 - - 10 - - - -
19/06:00am 17.3 WNW 7 9 1008.5 - 0.0 - - 10 - - - -
19/05:30am 18.1 W 10 13 1007.9 - 0.0 - - 10 - - - -
19/05:00am 17.6 WNW 9 11 1007.0 - 0.0 - - 10 - - - -
19/04:30am 17.6 WNW 9 11 1006.6 - 0.0 - - 10 - - - -
19/04:00am 17.8 NW 7 9 1006.4 - 0.0 - - 10 - - - -
19/03:30am 18.1 NW 7 8 1006.0 - 0.0 - - 10 - - - -
19/03:00am 18.4 WNW 9 9 1005.8 - 0.0 - - 10 - - - -
19/02:30am 18.6 WNW 8 9 1005.7 - 0.0 - - 10 - - - -
19/02:00am 18.9 NW 6 7 1005.9 - 0.0 - - - - - - -
19/01:30am 18.4 W 4 5 1006.1 - 0.0 - - 10 - - - -
19/01:00am 18.5 CALM 0 0 1006.3 - 0.0 - - 10 - - - -
19/12:30am 18.6 CALM 0 0 1006.4 - 0.0 - - - - - - -
19/12:00am 19.4 CALM 0 0 1006.5 - 0.0 - - 10 - - - -
 
Date/Time
EDT
Temp

°C
Wind Pressure Rain
since 9am
mm
Weather Cloud Vis
km
Sea
Height
m
Swell
Dir
 
Speed
knots
Gust
knots
hPa Trend Height
m
Period
s
Dir
18/11:30pm 20.4 N 2 5 1006.6 - 0.0 - - 10 - - - -
18/11:00pm 20.1 N 3 6 1006.6 - 0.0 - - 10 - - - -
18/10:30pm 21.7 NE 5 6 1006.7 - 0.0 - - - - - - -
18/10:00pm 21.6 ENE 4 6 1006.4 - 0.0 - - 10 - - - -
18/09:30pm 22.3 S 5 7 1006.1 - 0.0 - - 10 - - - -
18/09:00pm 23.4 SSE 7 9 1005.6 - 0.0 - - 10 - - - -
18/08:30pm 24.9 N 7 10 1004.7 - 0.0 - - 10 - - - -
18/08:00pm 25.2 N 10 14 1004.5 - 0.0 - - 10 - - - -
18/07:30pm 25.3 NNE 9 13 1004.4 - 0.0 - - 10 - - - -
18/07:00pm 25.6 NE 9 14 1004.5 - 0.0 - - 10 - - - -
18/06:30pm 26.0 NE 9 13 1004.3 - 0.0 - - 10 - - - -
18/06:00pm 25.3 NE 9 13 1004.1 - 0.0 - - 10 - - - -
18/05:30pm 25.6 NE 10 15 1004.2 - 0.0 - - 10 - - - -
18/05:00pm 26.0 NE 8 11 1004.1 - 0.0 - Partly cloudy 10 - - - -
18/04:30pm 26.3 E 11 14 1004.3 - 0.0 - Partly cloudy 10 - - - -
18/04:00pm 26.5 E 12 15 1004.4 - 0.0 - Partly cloudy 10 - - - -
18/03:30pm 26.3 NE 7 10 1005.1 - 0.0 - Partly cloudy 10 - - - -
18/03:00pm 25.8 E 8 10 1005.5 R 0.0 Haze Cloudy 15 - - - -
18/02:30pm 26.0 E 7 10 1005.9 - 0.0 - Partly cloudy 10 - - - -
18/02:00pm 26.2 SE 8 11 1006.0 - 0.0 - Mostly cloudy 10 - - - -
18/01:30pm 26.3 SE 7 9 1006.1 - 0.0 - Partly cloudy 10 - - - -
18/01:00pm 26.0 SSE 9 12 1006.5 - 0.0 - Partly cloudy 10 - - - -
18/12:30pm 25.6 SE 9 13 1006.5 - 0.0 - Mostly cloudy 10 - - - -
18/12:00pm 26.1 SSE 9 11 1006.8 F 0.0 Haze Mostly cloudy 15 - - - -
18/11:30am 26.6 WNW 3 6 1007.2 - 0.0 - Mostly cloudy 10 - - - -
18/11:00am 25.5 NW 5 7 1007.5 - 0.0 - Partly cloudy 10 - - - -
18/10:30am 24.9 ENE 8 11 1007.7 - 0.0 - Mostly clear 10 - - - -
18/10:00am 24.1 NE 9 14 1007.9 - 0.0 - Mostly clear 10 - - - -
18/09:30am 23.1 ENE 6 9 1008.3 - 0.0 - Partly cloudy 10 - - - -
18/09:00am 23.3 NE 9 14 1009.2 F 1.2 Haze Mostly cloudy 15 - - - -
18/08:30am 22.6 E 9 13 1009.0 - 1.2 - Partly cloudy 10 - - - -
18/08:00am 22.1 ENE 6 9 1009.3 - 1.2 - Partly cloudy 10 - - - -
18/07:30am 21.4 ENE 6 9 1009.1 - 1.2 - Partly cloudy 10 - - - -
18/07:00am 20.5 E 5 6 1009.0 - 1.2 - Partly cloudy 10 - - - -
18/06:30am 20.0 E 4 6 1008.7 - 1.2 - Partly cloudy 10 - - - -
18/06:00am 19.3 ENE 4 5 1008.6 F 1.2 Haze Mostly cloudy 15 - - - -

Other Formats:

Comma delimited format used in spreadsheet applications
http://www.bom.gov.au/fwo/IDN60701/IDN60701.94776.axf

JavaScript Object Notation format (JSON) in row-major order
http://www.bom.gov.au/fwo/IDN60701/IDN60701.94776.json